sensor_id;sensor_type;location;lat;lon;timestamp;P1;durP1;ratioP1;P2;durP2;ratioP2
10721;SDS011;5412;59.450;18.124;2022-09-02T00:00:56;0.93;;;0.70;;
10721;SDS011;5412;59.450;18.124;2022-09-02T00:03:28;0.80;;;0.50;;
10721;SDS011;5412;59.450;18.124;2022-09-02T00:05:55;0.70;;;0.70;;
10721;SDS011;5412;59.450;18.124;2022-09-02T00:08:21;0.65;;;0.57;;
10721;SDS011;5412;59.450;18.124;2022-09-02T00:10:47;1.95;;;0.50;;
10721;SDS011;5412;59.450;18.124;2022-09-02T00:13:14;0.50;;;0.50;;
10721;SDS011;5412;59.450;18.124;2022-09-02T00:15:44;0.57;;;0.55;;
10721;SDS011;5412;59.450;18.124;2022-09-02T00:18:10;0.40;;;0.40;;
10721;SDS011;5412;59.450;18.124;2022-09-02T00:20:37;1.33;;;0.50;;
10721;SDS011;5412;59.450;18.124;2022-09-02T00:23:03;0.60;;;0.60;;
10721;SDS011;5412;59.450;18.124;2022-09-02T00:25:30;5.15;;;0.60;;
10721;SDS011;5412;59.450;18.124;2022-09-02T00:27:56;1.15;;;0.75;;
10721;SDS011;5412;59.450;18.124;2022-09-02T00:30:22;0.65;;;0.40;;
10721;SDS011;5412;59.450;18.124;2022-09-02T00:32:48;0.63;;;0.60;;
10721;SDS011;5412;59.450;18.124;2022-09-02T00:35:14;0.50;;;0.50;;
10721;SDS011;5412;59.450;18.124;2022-09-02T00:37:39;0.45;;;0.45;;
10721;SDS011;5412;59.450;18.124;2022-09-02T00:40:05;0.40;;;0.40;;
10721;SDS011;5412;59.450;18.124;2022-09-02T00:42:32;0.70;;;0.50;;
10721;SDS011;5412;59.450;18.124;2022-09-02T00:44:59;0.40;;;0.40;;
10721;SDS011;5412;59.450;18.124;2022-09-02T00:47:26;1.20;;;0.50;;
10721;SDS011;5412;59.450;18.124;2022-09-02T00:49:55;0.50;;;0.50;;
10721;SDS011;5412;59.450;18.124;2022-09-02T00:52:26;0.40;;;0.40;;
10721;SDS011;5412;59.450;18.124;2022-09-02T00:54:57;0.60;;;0.60;;
10721;SDS011;5412;59.450;18.124;2022-09-02T00:57:28;1.40;;;0.57;;
10721;SDS011;5412;59.450;18.124;2022-09-02T01:00:06;0.90;;;0.63;;
10721;SDS011;5412;59.450;18.124;2022-09-02T01:02:44;1.98;;;0.57;;
10721;SDS011;5412;59.450;18.124;2022-09-02T01:05:13;2.88;;;0.60;;
10721;SDS011;5412;59.450;18.124;2022-09-02T01:07:41;1.17;;;0.40;;
10721;SDS011;5412;59.450;18.124;2022-09-02T01:10:10;0.63;;;0.50;;
10721;SDS011;5412;59.450;18.124;2022-09-02T01:12:41;0.70;;;0.70;;
10721;SDS011;5412;59.450;18.124;2022-09-02T01:15:08;0.43;;;0.40;;
10721;SDS011;5412;59.450;18.124;2022-09-02T01:17:36;2.45;;;0.60;;
10721;SDS011;5412;59.450;18.124;2022-09-02T01:20:08;1.33;;;0.65;;
10721;SDS011;5412;59.450;18.124;2022-09-02T01:22:36;2.05;;;0.60;;
10721;SDS011;5412;59.450;18.124;2022-09-02T01:25:05;0.47;;;0.43;;
10721;SDS011;5412;59.450;18.124;2022-09-02T01:27:36;0.73;;;0.73;;
10721;SDS011;5412;59.450;18.124;2022-09-02T01:30:03;0.40;;;0.40;;
10721;SDS011;5412;59.450;18.124;2022-09-02T01:32:30;1.35;;;0.60;;
10721;SDS011;5412;59.450;18.124;2022-09-02T01:34:56;1.23;;;0.68;;
10721;SDS011;5412;59.450;18.124;2022-09-02T01:37:23;0.70;;;0.70;;
10721;SDS011;5412;59.450;18.124;2022-09-02T01:39:50;1.92;;;0.60;;
10721;SDS011;5412;59.450;18.124;2022-09-02T01:42:16;1.40;;;0.55;;
10721;SDS011;5412;59.450;18.124;2022-09-02T01:44:43;1.95;;;0.88;;
10721;SDS011;5412;59.450;18.124;2022-09-02T01:47:12;1.35;;;0.70;;
10721;SDS011;5412;59.450;18.124;2022-09-02T01:49:39;0.57;;;0.55;;
10721;SDS011;5412;59.450;18.124;2022-09-02T01:52:06;4.72;;;0.70;;
10721;SDS011;5412;59.450;18.124;2022-09-02T01:54:33;0.65;;;0.60;;
10721;SDS011;5412;59.450;18.124;2022-09-02T01:56:59;1.75;;;0.70;;
10721;SDS011;5412;59.450;18.124;2022-09-02T01:59:25;1.30;;;0.70;;
10721;SDS011;5412;59.450;18.124;2022-09-02T02:01:51;1.23;;;0.70;;
10721;SDS011;5412;59.450;18.124;2022-09-02T02:04:16;0.60;;;0.60;;
10721;SDS011;5412;59.450;18.124;2022-09-02T02:06:42;0.55;;;0.50;;
10721;SDS011;5412;59.450;18.124;2022-09-02T02:09:09;1.02;;;0.60;;
10721;SDS011;5412;59.450;18.124;2022-09-02T02:11:36;1.23;;;0.70;;
10721;SDS011;5412;59.450;18.124;2022-09-02T02:14:03;1.60;;;0.60;;
10721;SDS011;5412;59.450;18.124;2022-09-02T02:16:29;1.35;;;0.70;;
10721;SDS011;5412;59.450;18.124;2022-09-02T02:18:55;2.47;;;0.82;;
10721;SDS011;5412;59.450;18.124;2022-09-02T02:21:22;1.45;;;0.50;;
10721;SDS011;5412;59.450;18.124;2022-09-02T02:23:47;1.33;;;0.57;;
10721;SDS011;5412;59.450;18.124;2022-09-02T02:26:13;0.43;;;0.43;;
10721;SDS011;5412;59.450;18.124;2022-09-02T02:28:39;0.55;;;0.50;;
10721;SDS011;5412;59.450;18.124;2022-09-02T02:31:05;0.68;;;0.50;;
10721;SDS011;5412;59.450;18.124;2022-09-02T02:33:31;0.55;;;0.50;;
10721;SDS011;5412;59.450;18.124;2022-09-02T02:35:56;1.08;;;0.60;;
10721;SDS011;5412;59.450;18.124;2022-09-02T02:38:23;0.60;;;0.60;;
10721;SDS011;5412;59.450;18.124;2022-09-02T02:40:49;3.40;;;0.60;;
10721;SDS011;5412;59.450;18.124;2022-09-02T02:43:20;1.10;;;0.73;;
10721;SDS011;5412;59.450;18.124;2022-09-02T02:45:45;0.70;;;0.50;;
10721;SDS011;5412;59.450;18.124;2022-09-02T02:48:12;1.50;;;0.40;;
10721;SDS011;5412;59.450;18.124;2022-09-02T02:50:37;2.58;;;0.70;;
10721;SDS011;5412;59.450;18.124;2022-09-02T02:53:03;0.75;;;0.60;;
10721;SDS011;5412;59.450;18.124;2022-09-02T02:55:29;1.95;;;0.57;;
10721;SDS011;5412;59.450;18.124;2022-09-02T02:57:55;1.42;;;0.60;;
10721;SDS011;5412;59.450;18.124;2022-09-02T03:00:24;0.95;;;0.60;;
10721;SDS011;5412;59.450;18.124;2022-09-02T03:02:56;1.23;;;0.68;;
10721;SDS011;5412;59.450;18.124;2022-09-02T03:05:24;1.70;;;0.60;;
10721;SDS011;5412;59.450;18.124;2022-09-02T03:07:50;0.80;;;0.55;;
10721;SDS011;5412;59.450;18.124;2022-09-02T03:10:16;0.68;;;0.68;;
10721;SDS011;5412;59.450;18.124;2022-09-02T03:12:43;1.63;;;0.63;;
10721;SDS011;5412;59.450;18.124;2022-09-02T03:15:12;1.35;;;0.50;;
10721;SDS011;5412;59.450;18.124;2022-09-02T03:17:41;0.43;;;0.43;;
10721;SDS011;5412;59.450;18.124;2022-09-02T03:20:10;2.08;;;0.68;;
10721;SDS011;5412;59.450;18.124;2022-09-02T03:22:37;2.88;;;0.90;;
10721;SDS011;5412;59.450;18.124;2022-09-02T03:25:07;0.65;;;0.60;;
10721;SDS011;5412;59.450;18.124;2022-09-02T03:27:35;1.98;;;0.70;;
10721;SDS011;5412;59.450;18.124;2022-09-02T03:30:02;0.50;;;0.50;;
10721;SDS011;5412;59.450;18.124;2022-09-02T03:32:30;1.92;;;0.77;;
10721;SDS011;5412;59.450;18.124;2022-09-02T03:34:55;0.60;;;0.60;;
10721;SDS011;5412;59.450;18.124;2022-09-02T03:37:21;1.17;;;0.80;;
10721;SDS011;5412;59.450;18.124;2022-09-02T03:39:47;3.50;;;0.90;;
10721;SDS011;5412;59.450;18.124;2022-09-02T03:42:12;1.02;;;0.70;;
10721;SDS011;5412;59.450;18.124;2022-09-02T03:44:38;0.88;;;0.60;;
10721;SDS011;5412;59.450;18.124;2022-09-02T03:47:05;1.15;;;0.60;;
10721;SDS011;5412;59.450;18.124;2022-09-02T03:49:32;1.02;;;0.45;;
10721;SDS011;5412;59.450;18.124;2022-09-02T03:51:58;0.70;;;0.60;;
10721;SDS011;5412;59.450;18.124;2022-09-02T03:54:23;2.35;;;0.90;;
10721;SDS011;5412;59.450;18.124;2022-09-02T03:56:49;1.75;;;0.80;;
10721;SDS011;5412;59.450;18.124;2022-09-02T03:59:15;2.08;;;0.65;;
10721;SDS011;5412;59.450;18.124;2022-09-02T04:01:41;0.60;;;0.60;;
10721;SDS011;5412;59.450;18.124;2022-09-02T04:04:07;2.67;;;0.65;;
10721;SDS011;5412;59.450;18.124;2022-09-02T04:06:33;1.02;;;0.70;;
10721;SDS011;5412;59.450;18.124;2022-09-02T04:08:59;3.58;;;0.68;;
10721;SDS011;5412;59.450;18.124;2022-09-02T04:11:25;1.02;;;0.70;;
10721;SDS011;5412;59.450;18.124;2022-09-02T04:13:51;1.75;;;0.80;;
10721;SDS011;5412;59.450;18.124;2022-09-02T04:16:21;1.45;;;0.57;;
10721;SDS011;5412;59.450;18.124;2022-09-02T04:18:53;1.40;;;0.70;;
10721;SDS011;5412;59.450;18.124;2022-09-02T04:21:21;1.30;;;0.70;;
10721;SDS011;5412;59.450;18.124;2022-09-02T04:23:47;2.28;;;0.77;;
10721;SDS011;5412;59.450;18.124;2022-09-02T04:26:15;3.28;;;0.90;;
10721;SDS011;5412;59.450;18.124;2022-09-02T04:28:42;1.33;;;0.70;;
10721;SDS011;5412;59.450;18.124;2022-09-02T04:31:10;1.60;;;0.80;;
10721;SDS011;5412;59.450;18.124;2022-09-02T04:33:37;1.55;;;0.55;;
10721;SDS011;5412;59.450;18.124;2022-09-02T04:36:04;1.17;;;0.52;;
10721;SDS011;5412;59.450;18.124;2022-09-02T04:38:31;0.80;;;0.70;;
10721;SDS011;5412;59.450;18.124;2022-09-02T04:40:57;0.98;;;0.60;;
10721;SDS011;5412;59.450;18.124;2022-09-02T04:43:23;1.92;;;0.57;;
10721;SDS011;5412;59.450;18.124;2022-09-02T04:45:49;0.45;;;0.45;;
10721;SDS011;5412;59.450;18.124;2022-09-02T04:48:15;2.13;;;0.88;;
10721;SDS011;5412;59.450;18.124;2022-09-02T04:50:43;1.92;;;1.20;;
10721;SDS011;5412;59.450;18.124;2022-09-02T04:53:09;2.63;;;0.77;;
10721;SDS011;5412;59.450;18.124;2022-09-02T04:55:37;2.80;;;0.82;;
10721;SDS011;5412;59.450;18.124;2022-09-02T04:58:04;0.82;;;0.50;;
10721;SDS011;5412;59.450;18.124;2022-09-02T05:00:30;0.63;;;0.50;;
10721;SDS011;5412;59.450;18.124;2022-09-02T05:02:56;0.63;;;0.63;;
10721;SDS011;5412;59.450;18.124;2022-09-02T05:05:21;1.42;;;0.98;;
10721;SDS011;5412;59.450;18.124;2022-09-02T05:07:47;1.35;;;0.60;;
10721;SDS011;5412;59.450;18.124;2022-09-02T05:10:13;2.08;;;0.60;;
10721;SDS011;5412;59.450;18.124;2022-09-02T05:12:39;0.55;;;0.55;;
10721;SDS011;5412;59.450;18.124;2022-09-02T05:15:06;0.80;;;0.60;;
10721;SDS011;5412;59.450;18.124;2022-09-02T05:17:34;3.00;;;0.80;;
10721;SDS011;5412;59.450;18.124;2022-09-02T05:20:01;2.45;;;0.60;;
10721;SDS011;5412;59.450;18.124;2022-09-02T05:22:28;0.43;;;0.43;;
10721;SDS011;5412;59.450;18.124;2022-09-02T05:24:54;0.57;;;0.52;;
10721;SDS011;5412;59.450;18.124;2022-09-02T05:27:20;1.55;;;0.60;;
10721;SDS011;5412;59.450;18.124;2022-09-02T05:29:47;1.08;;;0.60;;
10721;SDS011;5412;59.450;18.124;2022-09-02T05:32:13;1.10;;;0.60;;
10721;SDS011;5412;59.450;18.124;2022-09-02T05:34:39;1.05;;;0.60;;
10721;SDS011;5412;59.450;18.124;2022-09-02T05:37:04;1.30;;;0.77;;
10721;SDS011;5412;59.450;18.124;2022-09-02T05:39:30;2.63;;;0.73;;
10721;SDS011;5412;59.450;18.124;2022-09-02T05:41:56;4.72;;;0.80;;
10721;SDS011;5412;59.450;18.124;2022-09-02T05:44:22;0.45;;;0.40;;
10721;SDS011;5412;59.450;18.124;2022-09-02T05:46:48;2.50;;;0.50;;
10721;SDS011;5412;59.450;18.124;2022-09-02T05:49:14;1.38;;;0.73;;
10721;SDS011;5412;59.450;18.124;2022-09-02T05:51:55;1.02;;;0.55;;
10721;SDS011;5412;59.450;18.124;2022-09-02T05:54:41;2.60;;;1.33;;
10721;SDS011;5412;59.450;18.124;2022-09-02T05:57:08;1.38;;;0.95;;
10721;SDS011;5412;59.450;18.124;2022-09-02T05:59:36;1.08;;;0.50;;
10721;SDS011;5412;59.450;18.124;2022-09-02T06:02:07;1.05;;;0.70;;
10721;SDS011;5412;59.450;18.124;2022-09-02T06:04:38;1.50;;;0.65;;
10721;SDS011;5412;59.450;18.124;2022-09-02T06:07:05;0.55;;;0.50;;
10721;SDS011;5412;59.450;18.124;2022-09-02T06:09:31;1.73;;;0.70;;
10721;SDS011;5412;59.450;18.124;2022-09-02T06:11:57;0.30;;;0.30;;
10721;SDS011;5412;59.450;18.124;2022-09-02T06:14:23;1.10;;;0.70;;
10721;SDS011;5412;59.450;18.124;2022-09-02T06:16:49;1.33;;;0.70;;
10721;SDS011;5412;59.450;18.124;2022-09-02T06:19:17;1.17;;;0.63;;
10721;SDS011;5412;59.450;18.124;2022-09-02T06:21:43;0.63;;;0.60;;
10721;SDS011;5412;59.450;18.124;2022-09-02T06:24:09;1.98;;;0.50;;
10721;SDS011;5412;59.450;18.124;2022-09-02T06:26:36;0.57;;;0.50;;
10721;SDS011;5412;59.450;18.124;2022-09-02T06:29:03;0.40;;;0.40;;
10721;SDS011;5412;59.450;18.124;2022-09-02T06:31:30;1.13;;;0.60;;
10721;SDS011;5412;59.450;18.124;2022-09-02T06:33:56;0.50;;;0.50;;
10721;SDS011;5412;59.450;18.124;2022-09-02T06:36:23;1.70;;;0.50;;
10721;SDS011;5412;59.450;18.124;2022-09-02T06:38:51;0.60;;;0.50;;
10721;SDS011;5412;59.450;18.124;2022-09-02T06:41:19;0.95;;;0.40;;
10721;SDS011;5412;59.450;18.124;2022-09-02T06:43:47;0.90;;;0.40;;
10721;SDS011;5412;59.450;18.124;2022-09-02T06:46:15;0.45;;;0.43;;
10721;SDS011;5412;59.450;18.124;2022-09-02T06:48:46;0.40;;;0.40;;
10721;SDS011;5412;59.450;18.124;2022-09-02T06:51:22;0.40;;;0.40;;
10721;SDS011;5412;59.450;18.124;2022-09-02T06:53:51;1.00;;;0.50;;
10721;SDS011;5412;59.450;18.124;2022-09-02T06:56:16;1.25;;;0.50;;
10721;SDS011;5412;59.450;18.124;2022-09-02T06:58:42;0.30;;;0.30;;
10721;SDS011;5412;59.450;18.124;2022-09-02T07:01:08;0.30;;;0.30;;
10721;SDS011;5412;59.450;18.124;2022-09-02T07:03:35;1.02;;;0.40;;
10721;SDS011;5412;59.450;18.124;2022-09-02T07:06:19;0.30;;;0.30;;
10721;SDS011;5412;59.450;18.124;2022-09-02T07:08:45;1.13;;;0.40;;
10721;SDS011;5412;59.450;18.124;2022-09-02T07:11:18;0.50;;;0.40;;
10721;SDS011;5412;59.450;18.124;2022-09-02T07:13:47;0.20;;;0.20;;
10721;SDS011;5412;59.450;18.124;2022-09-02T07:16:13;0.85;;;0.40;;
10721;SDS011;5412;59.450;18.124;2022-09-02T07:18:39;0.45;;;0.40;;
10721;SDS011;5412;59.450;18.124;2022-09-02T07:21:07;0.30;;;0.30;;
10721;SDS011;5412;59.450;18.124;2022-09-02T07:23:34;0.30;;;0.30;;
10721;SDS011;5412;59.450;18.124;2022-09-02T07:25:59;0.30;;;0.30;;
10721;SDS011;5412;59.450;18.124;2022-09-02T07:28:25;0.98;;;0.40;;
10721;SDS011;5412;59.450;18.124;2022-09-02T07:30:51;0.82;;;0.40;;
10721;SDS011;5412;59.450;18.124;2022-09-02T07:33:19;0.38;;;0.38;;
10721;SDS011;5412;59.450;18.124;2022-09-02T07:35:46;1.48;;;0.40;;
10721;SDS011;5412;59.450;18.124;2022-09-02T07:38:12;1.10;;;0.40;;
10721;SDS011;5412;59.450;18.124;2022-09-02T07:40:39;3.33;;;0.45;;
10721;SDS011;5412;59.450;18.124;2022-09-02T07:43:06;0.35;;;0.30;;
10721;SDS011;5412;59.450;18.124;2022-09-02T07:45:34;1.55;;;0.40;;
10721;SDS011;5412;59.450;18.124;2022-09-02T07:48:02;0.65;;;0.35;;
10721;SDS011;5412;59.450;18.124;2022-09-02T07:50:31;0.75;;;0.30;;
10721;SDS011;5412;59.450;18.124;2022-09-02T07:52:59;1.75;;;0.50;;
10721;SDS011;5412;59.450;18.124;2022-09-02T07:55:30;0.57;;;0.35;;
10721;SDS011;5412;59.450;18.124;2022-09-02T07:57:58;0.35;;;0.35;;
10721;SDS011;5412;59.450;18.124;2022-09-02T08:00:24;0.68;;;0.50;;
10721;SDS011;5412;59.450;18.124;2022-09-02T08:02:51;0.30;;;0.30;;
10721;SDS011;5412;59.450;18.124;2022-09-02T08:05:17;0.47;;;0.47;;
10721;SDS011;5412;59.450;18.124;2022-09-02T08:07:43;0.40;;;0.40;;
10721;SDS011;5412;59.450;18.124;2022-09-02T08:10:10;1.75;;;0.30;;
10721;SDS011;5412;59.450;18.124;2022-09-02T08:12:37;0.93;;;0.47;;
10721;SDS011;5412;59.450;18.124;2022-09-02T08:15:05;0.40;;;0.40;;
10721;SDS011;5412;59.450;18.124;2022-09-02T08:17:31;0.43;;;0.40;;
10721;SDS011;5412;59.450;18.124;2022-09-02T08:19:57;0.30;;;0.30;;
10721;SDS011;5412;59.450;18.124;2022-09-02T08:22:23;0.30;;;0.30;;
10721;SDS011;5412;59.450;18.124;2022-09-02T08:24:49;1.42;;;0.40;;
10721;SDS011;5412;59.450;18.124;2022-09-02T08:27:15;0.50;;;0.32;;
10721;SDS011;5412;59.450;18.124;2022-09-02T08:29:41;0.38;;;0.38;;
10721;SDS011;5412;59.450;18.124;2022-09-02T08:32:07;0.65;;;0.47;;
10721;SDS011;5412;59.450;18.124;2022-09-02T08:34:32;1.42;;;0.47;;
10721;SDS011;5412;59.450;18.124;2022-09-02T08:36:59;0.40;;;0.40;;
10721;SDS011;5412;59.450;18.124;2022-09-02T08:39:24;0.30;;;0.30;;
10721;SDS011;5412;59.450;18.124;2022-09-02T08:44:21;1.17;;;0.40;;
10721;SDS011;5412;59.450;18.124;2022-09-02T08:46:52;0.95;;;0.28;;
10721;SDS011;5412;59.450;18.124;2022-09-02T08:49:23;0.52;;;0.40;;
10721;SDS011;5412;59.450;18.124;2022-09-02T08:51:57;0.60;;;0.60;;
10721;SDS011;5412;59.450;18.124;2022-09-02T08:57:09;0.40;;;0.40;;
10721;SDS011;5412;59.450;18.124;2022-09-02T08:59:36;0.73;;;0.40;;
10721;SDS011;5412;59.450;18.124;2022-09-02T09:05:24;0.40;;;0.35;;
10721;SDS011;5412;59.450;18.124;2022-09-02T09:13:35;1.17;;;0.38;;
10721;SDS011;5412;59.450;18.124;2022-09-02T09:16:17;0.90;;;0.40;;
10721;SDS011;5412;59.450;18.124;2022-09-02T09:18:59;0.70;;;0.43;;
10721;SDS011;5412;59.450;18.124;2022-09-02T09:21:34;0.40;;;0.40;;
10721;SDS011;5412;59.450;18.124;2022-09-02T09:24:01;0.68;;;0.32;;
10721;SDS011;5412;59.450;18.124;2022-09-02T09:26:34;0.47;;;0.32;;
10721;SDS011;5412;59.450;18.124;2022-09-02T09:29:03;0.40;;;0.40;;
10721;SDS011;5412;59.450;18.124;2022-09-02T09:31:29;0.93;;;0.30;;
10721;SDS011;5412;59.450;18.124;2022-09-02T09:34:00;0.50;;;0.50;;
10721;SDS011;5412;59.450;18.124;2022-09-02T09:41:45;1.65;;;0.40;;
10721;SDS011;5412;59.450;18.124;2022-09-02T09:49:48;0.68;;;0.32;;
10721;SDS011;5412;59.450;18.124;2022-09-02T09:52:22;0.82;;;0.40;;
10721;SDS011;5412;59.450;18.124;2022-09-02T09:55:11;0.40;;;0.40;;
10721;SDS011;5412;59.450;18.124;2022-09-02T09:57:43;1.48;;;0.50;;
10721;SDS011;5412;59.450;18.124;2022-09-02T10:00:24;0.45;;;0.40;;
10721;SDS011;5412;59.450;18.124;2022-09-02T10:02:58;3.38;;;0.40;;
10721;SDS011;5412;59.450;18.124;2022-09-02T10:05:36;0.90;;;0.30;;
10721;SDS011;5412;59.450;18.124;2022-09-02T10:08:25;0.47;;;0.40;;
10721;SDS011;5412;59.450;18.124;2022-09-02T10:11:02;0.60;;;0.40;;
10721;SDS011;5412;59.450;18.124;2022-09-02T10:13:34;0.90;;;0.43;;
10721;SDS011;5412;59.450;18.124;2022-09-02T10:16:15;0.40;;;0.40;;
10721;SDS011;5412;59.450;18.124;2022-09-02T10:21:28;0.40;;;0.40;;
10721;SDS011;5412;59.450;18.124;2022-09-02T10:26:45;1.55;;;0.40;;
10721;SDS011;5412;59.450;18.124;2022-09-02T10:40:44;0.30;;;0.30;;
10721;SDS011;5412;59.450;18.124;2022-09-02T10:46:15;0.93;;;0.40;;
10721;SDS011;5412;59.450;18.124;2022-09-02T10:59:27;0.60;;;0.60;;
10721;SDS011;5412;59.450;18.124;2022-09-02T11:02:07;0.73;;;0.30;;
10721;SDS011;5412;59.450;18.124;2022-09-02T11:04:52;0.52;;;0.40;;
10721;SDS011;5412;59.450;18.124;2022-09-02T11:07:34;0.85;;;0.30;;
10721;SDS011;5412;59.450;18.124;2022-09-02T11:10:14;1.85;;;0.47;;
10721;SDS011;5412;59.450;18.124;2022-09-02T11:12:50;2.45;;;0.70;;
10721;SDS011;5412;59.450;18.124;2022-09-02T11:18:08;0.47;;;0.40;;
10721;SDS011;5412;59.450;18.124;2022-09-02T11:21:17;0.80;;;0.32;;
10721;SDS011;5412;59.450;18.124;2022-09-02T11:24:00;0.35;;;0.35;;
10721;SDS011;5412;59.450;18.124;2022-09-02T11:29:29;0.80;;;0.30;;
10721;SDS011;5412;59.450;18.124;2022-09-02T11:32:04;0.35;;;0.35;;
10721;SDS011;5412;59.450;18.124;2022-09-02T11:34:45;0.68;;;0.43;;
10721;SDS011;5412;59.450;18.124;2022-09-02T11:37:38;0.70;;;0.40;;
10721;SDS011;5412;59.450;18.124;2022-09-02T11:40:12;0.60;;;0.50;;
10721;SDS011;5412;59.450;18.124;2022-09-02T11:42:57;4.30;;;0.40;;
10721;SDS011;5412;59.450;18.124;2022-09-02T11:54:01;0.73;;;0.50;;
10721;SDS011;5412;59.450;18.124;2022-09-02T11:56:42;0.40;;;0.40;;
10721;SDS011;5412;59.450;18.124;2022-09-02T11:59:22;2.03;;;0.32;;
10721;SDS011;5412;59.450;18.124;2022-09-02T12:02:09;0.82;;;0.47;;
10721;SDS011;5412;59.450;18.124;2022-09-02T12:04:36;1.95;;;0.50;;
10721;SDS011;5412;59.450;18.124;2022-09-02T12:18:12;0.35;;;0.35;;
10721;SDS011;5412;59.450;18.124;2022-09-02T12:23:03;0.45;;;0.45;;
10721;SDS011;5412;59.450;18.124;2022-09-02T12:33:30;0.68;;;0.50;;
10721;SDS011;5412;59.450;18.124;2022-09-02T12:35:57;0.85;;;0.40;;
10721;SDS011;5412;59.450;18.124;2022-09-02T12:38:25;0.82;;;0.52;;
10721;SDS011;5412;59.450;18.124;2022-09-02T12:49:24;0.20;;;0.20;;
10721;SDS011;5412;59.450;18.124;2022-09-02T12:55:03;0.77;;;0.43;;
10721;SDS011;5412;59.450;18.124;2022-09-02T12:57:42;1.65;;;0.55;;
10721;SDS011;5412;59.450;18.124;2022-09-02T13:06:04;2.58;;;0.55;;
10721;SDS011;5412;59.450;18.124;2022-09-02T13:22:43;0.47;;;0.47;;
10721;SDS011;5412;59.450;18.124;2022-09-02T13:31:12;0.30;;;0.30;;
10721;SDS011;5412;59.450;18.124;2022-09-02T13:33:43;1.45;;;0.50;;
10721;SDS011;5412;59.450;18.124;2022-09-02T13:36:10;0.68;;;0.40;;
10721;SDS011;5412;59.450;18.124;2022-09-02T13:38:50;0.68;;;0.32;;
10721;SDS011;5412;59.450;18.124;2022-09-02T13:41:31;0.30;;;0.30;;
10721;SDS011;5412;59.450;18.124;2022-09-02T13:44:11;0.88;;;0.50;;
10721;SDS011;5412;59.450;18.124;2022-09-02T13:46:45;0.75;;;0.30;;
10721;SDS011;5412;59.450;18.124;2022-09-02T13:49:22;0.55;;;0.55;;
10721;SDS011;5412;59.450;18.124;2022-09-02T13:51:51;0.45;;;0.45;;
10721;SDS011;5412;59.450;18.124;2022-09-02T13:54:24;0.52;;;0.30;;
10721;SDS011;5412;59.450;18.124;2022-09-02T13:56:57;0.50;;;0.50;;
10721;SDS011;5412;59.450;18.124;2022-09-02T13:59:38;0.50;;;0.35;;
10721;SDS011;5412;59.450;18.124;2022-09-02T14:02:16;0.30;;;0.30;;
10721;SDS011;5412;59.450;18.124;2022-09-02T14:04:48;0.40;;;0.40;;
10721;SDS011;5412;59.450;18.124;2022-09-02T14:07:18;2.95;;;0.40;;
10721;SDS011;5412;59.450;18.124;2022-09-02T14:09:50;1.15;;;0.50;;
10721;SDS011;5412;59.450;18.124;2022-09-02T14:12:16;0.30;;;0.30;;
10721;SDS011;5412;59.450;18.124;2022-09-02T14:14:43;0.50;;;0.50;;
10721;SDS011;5412;59.450;18.124;2022-09-02T14:19:45;0.28;;;0.28;;
10721;SDS011;5412;59.450;18.124;2022-09-02T14:22:28;0.63;;;0.35;;
10721;SDS011;5412;59.450;18.124;2022-09-02T14:24:54;0.57;;;0.57;;
10721;SDS011;5412;59.450;18.124;2022-09-02T14:27:21;0.40;;;0.40;;
10721;SDS011;5412;59.450;18.124;2022-09-02T14:29:53;1.15;;;0.52;;
10721;SDS011;5412;59.450;18.124;2022-09-02T14:32:24;0.32;;;0.32;;
10721;SDS011;5412;59.450;18.124;2022-09-02T14:37:52;1.65;;;0.30;;
10721;SDS011;5412;59.450;18.124;2022-09-02T14:43:13;0.47;;;0.40;;
10721;SDS011;5412;59.450;18.124;2022-09-02T14:45:44;0.35;;;0.30;;
10721;SDS011;5412;59.450;18.124;2022-09-02T14:48:18;0.65;;;0.40;;
10721;SDS011;5412;59.450;18.124;2022-09-02T14:50:46;0.30;;;0.30;;
10721;SDS011;5412;59.450;18.124;2022-09-02T14:53:12;0.40;;;0.25;;
10721;SDS011;5412;59.450;18.124;2022-09-02T14:58:19;0.80;;;0.40;;
10721;SDS011;5412;59.450;18.124;2022-09-02T15:00:47;0.80;;;0.30;;
10721;SDS011;5412;59.450;18.124;2022-09-02T15:03:18;1.13;;;0.50;;
10721;SDS011;5412;59.450;18.124;2022-09-02T15:05:45;0.50;;;0.50;;
10721;SDS011;5412;59.450;18.124;2022-09-02T15:08:11;1.15;;;0.70;;
10721;SDS011;5412;59.450;18.124;2022-09-02T15:10:37;0.52;;;0.50;;
10721;SDS011;5412;59.450;18.124;2022-09-02T15:13:04;0.38;;;0.38;;
10721;SDS011;5412;59.450;18.124;2022-09-02T15:15:36;0.52;;;0.25;;
10721;SDS011;5412;59.450;18.124;2022-09-02T15:18:02;0.73;;;0.40;;
10721;SDS011;5412;59.450;18.124;2022-09-02T15:20:28;0.32;;;0.32;;
10721;SDS011;5412;59.450;18.124;2022-09-02T15:22:55;0.30;;;0.30;;
10721;SDS011;5412;59.450;18.124;2022-09-02T15:25:20;0.35;;;0.30;;
10721;SDS011;5412;59.450;18.124;2022-09-02T15:27:46;0.35;;;0.35;;
10721;SDS011;5412;59.450;18.124;2022-09-02T15:30:12;0.50;;;0.50;;
10721;SDS011;5412;59.450;18.124;2022-09-02T15:32:37;0.65;;;0.50;;
10721;SDS011;5412;59.450;18.124;2022-09-02T15:35:04;1.10;;;0.45;;
10721;SDS011;5412;59.450;18.124;2022-09-02T15:37:31;1.65;;;0.50;;
10721;SDS011;5412;59.450;18.124;2022-09-02T15:39:59;1.13;;;0.98;;
10721;SDS011;5412;59.450;18.124;2022-09-02T15:42:24;0.45;;;0.43;;
10721;SDS011;5412;59.450;18.124;2022-09-02T15:44:50;0.60;;;0.50;;
10721;SDS011;5412;59.450;18.124;2022-09-02T15:47:16;2.00;;;1.27;;
10721;SDS011;5412;59.450;18.124;2022-09-02T15:49:41;0.73;;;0.52;;
10721;SDS011;5412;59.450;18.124;2022-09-02T15:52:07;0.40;;;0.40;;
10721;SDS011;5412;59.450;18.124;2022-09-02T15:54:33;1.40;;;0.90;;
10721;SDS011;5412;59.450;18.124;2022-09-02T15:56:58;2.63;;;0.98;;
10721;SDS011;5412;59.450;18.124;2022-09-02T15:59:24;0.45;;;0.45;;
10721;SDS011;5412;59.450;18.124;2022-09-02T16:01:52;0.85;;;0.47;;
10721;SDS011;5412;59.450;18.124;2022-09-02T16:04:19;0.40;;;0.30;;
10721;SDS011;5412;59.450;18.124;2022-09-02T16:06:46;0.50;;;0.50;;
10721;SDS011;5412;59.450;18.124;2022-09-02T16:09:14;1.30;;;0.38;;
10721;SDS011;5412;59.450;18.124;2022-09-02T16:11:45;0.30;;;0.30;;
10721;SDS011;5412;59.450;18.124;2022-09-02T16:14:15;0.30;;;0.30;;
10721;SDS011;5412;59.450;18.124;2022-09-02T16:16:42;0.40;;;0.40;;
10721;SDS011;5412;59.450;18.124;2022-09-02T16:19:09;1.00;;;0.45;;
10721;SDS011;5412;59.450;18.124;2022-09-02T16:21:36;0.47;;;0.40;;
10721;SDS011;5412;59.450;18.124;2022-09-02T16:24:08;0.75;;;0.43;;
10721;SDS011;5412;59.450;18.124;2022-09-02T16:26:37;0.82;;;0.20;;
10721;SDS011;5412;59.450;18.124;2022-09-02T16:29:05;0.60;;;0.43;;
10721;SDS011;5412;59.450;18.124;2022-09-02T16:31:34;0.20;;;0.20;;
10721;SDS011;5412;59.450;18.124;2022-09-02T16:34:05;0.73;;;0.50;;
10721;SDS011;5412;59.450;18.124;2022-09-02T16:36:34;0.32;;;0.20;;
10721;SDS011;5412;59.450;18.124;2022-09-02T16:39:02;0.85;;;0.50;;
10721;SDS011;5412;59.450;18.124;2022-09-02T16:41:32;0.90;;;0.50;;
10721;SDS011;5412;59.450;18.124;2022-09-02T16:44:00;2.60;;;0.47;;
10721;SDS011;5412;59.450;18.124;2022-09-02T16:46:27;0.55;;;0.55;;
10721;SDS011;5412;59.450;18.124;2022-09-02T16:48:54;0.32;;;0.32;;
10721;SDS011;5412;59.450;18.124;2022-09-02T16:51:20;1.40;;;0.50;;
10721;SDS011;5412;59.450;18.124;2022-09-02T16:53:51;0.80;;;0.57;;
10721;SDS011;5412;59.450;18.124;2022-09-02T16:56:17;3.05;;;0.75;;
10721;SDS011;5412;59.450;18.124;2022-09-02T16:58:44;1.00;;;0.80;;
10721;SDS011;5412;59.450;18.124;2022-09-02T17:01:10;1.58;;;0.80;;
10721;SDS011;5412;59.450;18.124;2022-09-02T17:03:36;7.38;;;1.40;;
10721;SDS011;5412;59.450;18.124;2022-09-02T17:06:03;3.97;;;2.80;;
10721;SDS011;5412;59.450;18.124;2022-09-02T17:08:28;3.22;;;1.70;;
10721;SDS011;5412;59.450;18.124;2022-09-02T17:11:11;2.08;;;1.30;;
10721;SDS011;5412;59.450;18.124;2022-09-02T17:13:54;1.40;;;1.30;;
10721;SDS011;5412;59.450;18.124;2022-09-02T17:16:20;2.22;;;1.10;;
10721;SDS011;5412;59.450;18.124;2022-09-02T17:18:48;0.70;;;0.60;;